createdAt,value
2018-03-18T00:32:17.331Z,-1.80
2018-03-18T00:55:36.379Z,-1.50
2018-03-18T01:01:41.374Z,-1.50
2018-03-18T01:04:32.620Z,-1.50
2018-03-18T01:10:18.157Z,-1.50
2018-03-18T01:18:59.770Z,-1.60
2018-03-18T01:22:03.800Z,-1.50
2018-03-18T01:24:48.216Z,-1.50
2018-03-18T01:27:24.798Z,-1.50
2018-03-18T01:30:16.820Z,-1.40
2018-03-18T01:33:38.323Z,-1.50
2018-03-18T01:36:32.616Z,-1.50
2018-03-18T01:39:14.547Z,-1.50
2018-03-18T01:41:52.172Z,-1.40
2018-03-18T01:44:31.271Z,-1.50
2018-03-18T01:47:18.293Z,-1.50
2018-03-18T01:50:03.221Z,-1.50
2018-03-18T01:52:54.487Z,-1.50
2018-03-18T01:55:36.575Z,-1.50
2018-03-18T01:58:13.911Z,-1.50
2018-03-18T02:00:57.790Z,-1.50
2018-03-18T02:03:35.551Z,-1.50
2018-03-18T02:06:15.646Z,-1.50
2018-03-18T02:09:01.694Z,-1.50
2018-03-18T02:11:36.447Z,-1.50
2018-03-18T02:14:13.370Z,-1.50
2018-03-18T02:17:03.225Z,-1.50
2018-03-18T02:19:47.419Z,-1.50
2018-03-18T02:22:27.020Z,-1.50
2018-03-18T02:25:15.136Z,-1.50
2018-03-18T02:27:50.360Z,-1.50
2018-03-18T02:30:26.200Z,-1.50
2018-03-18T02:33:06.092Z,-1.50
2018-03-18T02:35:46.381Z,-1.50
2018-03-18T02:38:29.178Z,-1.50
2018-03-18T02:41:18.168Z,-1.60
2018-03-18T02:44:00.212Z,-1.60
2018-03-18T02:49:21.989Z,-1.50
2018-03-18T02:51:55.961Z,-1.60
2018-03-18T02:54:32.232Z,-1.50
2018-03-18T03:00:13.283Z,-1.60
2018-03-18T03:02:54.447Z,-1.60
2018-03-18T03:05:36.260Z,-1.60
2018-03-18T03:08:17.050Z,-1.70
2018-03-18T03:11:04.725Z,-1.70
2018-03-18T03:13:41.166Z,-1.70
2018-03-18T03:19:05.544Z,-1.70
2018-03-18T03:21:45.541Z,-1.70
2018-03-18T03:24:26.375Z,-1.70
2018-03-18T03:27:16.905Z,-1.70
2018-03-18T03:29:51.575Z,-1.70
2018-03-18T03:32:36.894Z,-1.70
2018-03-18T03:35:21.725Z,-1.70
2018-03-18T03:38:05.943Z,-1.90
2018-03-18T03:40:51.337Z,-1.70
2018-03-18T03:43:40.850Z,-1.80
2018-03-18T03:50:04.979Z,-1.80
2018-03-18T03:52:41.108Z,-1.90
2018-03-18T03:55:22.089Z,-1.90
2018-03-18T03:58:09.537Z,-1.80
2018-03-18T04:00:44.650Z,-1.80
2018-03-18T04:03:27.029Z,-1.90
2018-03-18T04:06:07.955Z,-1.90
2018-03-18T04:08:40.581Z,-1.80
2018-03-18T04:11:19.821Z,-1.80
2018-03-18T04:14:03.978Z,-1.90
2018-03-18T04:16:41.766Z,-1.80
2018-03-18T04:19:22.739Z,-1.80
2018-03-18T04:22:05.539Z,-1.90
2018-03-18T04:24:48.829Z,-1.90
2018-03-18T04:27:27.458Z,-1.90
2018-03-18T04:30:12.330Z,-2.00
2018-03-18T04:32:55.466Z,-2.00
2018-03-18T04:35:34.321Z,-2.00
2018-03-18T04:38:25.423Z,-2.00
2018-03-18T04:41:06.557Z,-2.00
2018-03-18T04:43:46.648Z,-2.10
2018-03-18T04:46:48.069Z,-2.10
2018-03-18T04:49:30.850Z,-2.10
2018-03-18T04:52:14.563Z,-2.10
2018-03-18T04:54:57.235Z,-2.20
2018-03-18T04:57:38.322Z,-2.10
2018-03-18T05:00:15.724Z,-2.10
2018-03-18T05:03:02.015Z,-2.10
2018-03-18T05:05:35.983Z,-2.10
2018-03-18T05:08:14.999Z,-2.10
2018-03-18T05:17:08.854Z,-2.00
2018-03-18T05:20:05.590Z,-2.00
2018-03-18T05:22:44.808Z,-2.10
2018-03-18T05:25:21.887Z,-2.10
2018-03-18T05:28:04.930Z,-2.00
2018-03-18T05:33:26.499Z,-2.00
2018-03-18T05:41:09.089Z,-2.00
2018-03-18T05:43:43.053Z,-2.00
2018-03-18T05:46:21.138Z,-2.10
2018-03-18T05:49:16.585Z,-2.10
2018-03-18T05:51:49.318Z,-2.10
2018-03-18T05:57:14.897Z,-2.10
2018-03-18T06:00:01.105Z,-2.10
2018-03-18T06:02:54.752Z,-2.10
2018-03-18T06:05:38.941Z,-2.10
2018-03-18T06:09:29.117Z,-2.10
2018-03-18T06:12:10.195Z,-2.10
2018-03-18T06:15:03.318Z,-2.10
2018-03-18T06:17:55.963Z,-2.10
2018-03-18T06:21:03.183Z,-2.10
2018-03-18T06:23:54.562Z,-2.10
2018-03-18T06:26:43.272Z,-2.00
2018-03-18T06:32:33.183Z,-2.00
2018-03-18T06:35:15.389Z,-2.00
2018-03-18T06:38:01.105Z,-2.00
2018-03-18T06:40:42.586Z,-2.10
2018-03-18T06:43:26.259Z,-2.10
2018-03-18T06:46:03.080Z,-2.10
2018-03-18T06:48:43.832Z,-2.20
2018-03-18T06:51:20.736Z,-2.10
2018-03-18T06:54:21.012Z,-2.10
2018-03-18T06:57:08.669Z,-2.00
2018-03-18T06:59:47.856Z,-2.10
2018-03-18T07:02:25.164Z,-2.10
2018-03-18T07:05:19.346Z,-2.10
2018-03-18T07:07:57.458Z,-2.20
2018-03-18T07:10:37.430Z,-2.10
2018-03-18T07:13:37.786Z,-2.10
2018-03-18T07:16:13.698Z,-2.00
2018-03-18T07:22:09.346Z,-2.00
2018-03-18T07:24:53.248Z,-2.10
2018-03-18T07:27:31.399Z,-2.00
2018-03-18T07:33:02.065Z,-2.00
2018-03-18T07:35:49.590Z,-2.10
2018-03-18T07:38:22.740Z,-2.10
2018-03-18T07:41:10.309Z,-2.00
2018-03-18T07:43:53.191Z,-2.10
2018-03-18T07:46:46.499Z,-2.10
2018-03-18T07:49:26.386Z,-2.10
2018-03-18T07:52:17.488Z,-2.20
2018-03-18T07:55:55.063Z,-2.00
2018-03-18T07:58:42.516Z,-2.10
2018-03-18T08:01:27.543Z,-2.20
2018-03-18T08:07:37.166Z,-2.20
2018-03-18T08:10:31.582Z,-2.10
2018-03-18T08:16:19.340Z,-2.00
2018-03-18T08:18:57.778Z,-2.00
2018-03-18T08:21:51.019Z,-2.00
2018-03-18T08:24:34.885Z,-2.00
2018-03-18T08:31:46.255Z,-2.00
2018-03-18T08:44:01.367Z,-1.90
2018-03-18T08:49:37.883Z,-2.00
2018-03-18T08:52:33.603Z,-1.90
2018-03-18T08:58:28.570Z,-1.60
2018-03-18T09:01:15.368Z,-1.90
2018-03-18T09:33:54.932Z,-1.30
2018-03-18T09:36:54.924Z,-1.40
2018-03-18T09:58:38.942Z,-1.40
2018-03-18T10:40:17.433Z,-1.00
2018-03-18T10:46:44.543Z,-1.10
2018-03-18T10:52:35.480Z,-1.20
2018-03-18T10:55:41.589Z,-1.20
2018-03-18T10:59:53.623Z,-1.10
2018-03-18T11:18:33.713Z,-0.90
2018-03-18T11:21:47.780Z,-0.40
2018-03-18T11:24:34.957Z,-0.40
2018-03-18T11:27:29.191Z,-0.40
2018-03-18T11:30:19.690Z,-0.30
2018-03-18T11:33:12.442Z,-0.10
2018-03-18T11:36:25.560Z,0.10
2018-03-18T11:39:30.469Z,0.20
2018-03-18T11:48:59.975Z,-0.40
2018-03-18T11:55:50.627Z,-0.30
2018-03-18T11:58:44.135Z,0.00
2018-03-18T12:04:35.839Z,0.00
2018-03-18T12:07:34.925Z,0.10
2018-03-18T12:16:51.856Z,0.30
2018-03-18T12:33:02.209Z,0.80
2018-03-18T12:39:15.508Z,1.10
2018-03-18T12:43:54.769Z,1.30
2018-03-18T13:02:57.627Z,1.50
2018-03-18T13:05:53.866Z,1.60
2018-03-18T13:08:44.602Z,1.70
2018-03-18T13:17:26.279Z,1.60
2018-03-18T13:26:22.636Z,1.90
2018-03-18T13:29:16.263Z,1.60
2018-03-18T13:32:16.417Z,1.90
2018-03-18T13:35:22.102Z,1.80
2018-03-18T13:38:43.956Z,1.80
2018-03-18T13:41:53.281Z,1.70
2018-03-18T14:05:56.727Z,1.40
2018-03-18T14:08:53.542Z,1.80
2018-03-18T14:12:11.904Z,1.90
2018-03-18T14:18:34.660Z,1.90
2018-03-18T14:38:42.693Z,1.70
2018-03-18T14:44:59.357Z,1.40
2018-03-18T15:30:39.854Z,1.60
2018-03-18T15:37:17.993Z,4.20
2018-03-18T15:53:03.776Z,4.20
2018-03-18T15:56:33.590Z,4.10
2018-03-18T17:10:32.273Z,0.60
2018-03-18T17:13:20.808Z,0.60
2018-03-18T17:16:20.263Z,0.50
2018-03-18T17:19:09.764Z,0.50
2018-03-18T17:25:00.845Z,0.40
2018-03-18T17:31:01.800Z,0.50
2018-03-18T17:34:07.646Z,0.40
2018-03-18T17:40:54.932Z,0.40
2018-03-18T17:46:44.646Z,0.30
2018-03-18T17:51:45.250Z,0.20
2018-03-18T18:13:44.519Z,0.10
2018-03-18T18:46:16.239Z,-0.20
2018-03-18T18:52:54.025Z,-0.20
2018-03-18T18:55:52.949Z,-0.20
2018-03-18T19:18:14.636Z,-0.30
2018-03-18T19:24:03.863Z,-0.30
2018-03-18T19:29:58.163Z,-0.30
2018-03-18T19:33:30.108Z,-0.30
2018-03-18T19:36:20.944Z,-0.30
2018-03-18T19:42:01.818Z,-0.30
2018-03-18T20:20:02.604Z,-0.30
2018-03-18T20:22:47.910Z,-0.40
2018-03-18T20:25:37.560Z,-0.30
2018-03-18T20:28:28.628Z,-0.30
2018-03-18T20:31:19.605Z,-0.30
2018-03-18T20:36:52.752Z,-0.40
2018-03-18T20:39:51.502Z,-0.40
2018-03-18T20:42:53.402Z,-0.40
2018-03-18T20:45:56.092Z,-0.40
2018-03-18T20:51:46.001Z,-0.40
2018-03-18T20:54:39.844Z,-0.40
2018-03-18T20:57:41.161Z,-0.40
2018-03-18T21:00:31.807Z,-0.40
2018-03-18T21:06:28.710Z,-0.40
2018-03-18T21:09:34.778Z,-0.40
2018-03-18T21:22:04.311Z,-0.40
2018-03-18T21:49:46.997Z,-0.40
2018-03-18T22:26:42.315Z,-0.60
2018-03-18T22:29:39.181Z,-0.70
2018-03-18T22:32:24.587Z,-0.70
2018-03-18T22:35:17.132Z,-0.70
2018-03-18T22:41:06.258Z,-0.70
2018-03-18T22:44:06.162Z,-0.70
2018-03-18T22:46:54.062Z,-0.70
2018-03-18T22:49:43.552Z,-0.70
2018-03-18T22:55:31.756Z,-0.40
2018-03-18T22:58:31.835Z,-0.70
2018-03-18T23:01:13.804Z,-0.80
2018-03-18T23:04:09.441Z,-0.80
2018-03-18T23:07:07.436Z,-0.80
2018-03-18T23:10:11.447Z,-0.80
2018-03-18T23:13:59.399Z,-0.80
2018-03-18T23:16:51.006Z,-0.90
2018-03-18T23:19:43.127Z,-0.90
2018-03-18T23:22:32.812Z,-0.90
2018-03-18T23:28:37.771Z,-0.90
2018-03-18T23:39:26.827Z,-0.90
2018-03-18T23:42:13.171Z,-0.90
2018-03-18T23:48:13.501Z,-1.00
2018-03-18T23:54:47.944Z,-1.00
2018-03-18T23:57:35.345Z,-0.90
